Terminal Aerodrome Forecast
Issued by NWS Sterling, VA

Current Version | Previous Version | Graphics & Text | Print | Product List | Glossary On
Versions: 1 2 3 4 5 6 7 8 9 10 11 12 13 14
000
FTUS41 KLWX 222333
TAFMRB
TAF
KMRB 222333Z 2300/2324 32008KT P6SM FEW040
     FM230200 31007KT P6SM SKC
     FM230600 30004KT P6SM SKC
     FM232000 25005KT P6SM SKC=

USA.gov is the U.S. government's official web portal to all federal, state and local government web resources and services.